createdAt,value
2018-12-30T00:00:01.347Z,38.30
2018-12-30T00:03:23.521Z,36.00
2018-12-30T00:06:45.907Z,34.93
2018-12-30T00:10:08.161Z,34.30
2018-12-30T00:13:30.113Z,37.43
2018-12-30T00:16:52.600Z,36.93
2018-12-30T00:20:14.999Z,35.30
2018-12-30T00:23:37.212Z,32.43
2018-12-30T00:26:59.049Z,35.20
2018-12-30T00:30:21.456Z,66.27
2018-12-30T00:33:43.877Z,36.97
2018-12-30T00:37:05.833Z,36.93
2018-12-30T00:40:27.767Z,34.40
2018-12-30T00:43:49.684Z,32.40
2018-12-30T00:47:11.993Z,32.17
2018-12-30T00:50:34.658Z,35.43
2018-12-30T00:53:56.702Z,36.17
2018-12-30T00:57:19.036Z,37.23
2018-12-30T01:00:41.668Z,37.97
2018-12-30T01:04:04.160Z,37.47
2018-12-30T01:07:27.108Z,39.27
2018-12-30T01:10:49.586Z,36.87
2018-12-30T01:14:11.753Z,36.07
2018-12-30T01:17:34.227Z,34.90
2018-12-30T01:20:56.736Z,36.50
2018-12-30T01:24:18.955Z,36.67
2018-12-30T01:27:41.110Z,36.03
2018-12-30T01:31:03.333Z,34.10
2018-12-30T01:34:25.524Z,36.47
2018-12-30T01:37:47.641Z,33.43
2018-12-30T01:41:09.860Z,33.07
2018-12-30T01:44:32.117Z,34.27
2018-12-30T01:47:54.445Z,36.33
2018-12-30T01:51:16.551Z,31.67
2018-12-30T01:54:38.866Z,31.87
2018-12-30T01:58:01.332Z,30.20
2018-12-30T02:01:23.722Z,32.40
2018-12-30T02:04:45.723Z,32.17
2018-12-30T02:08:08.288Z,31.23
2018-12-30T02:11:30.463Z,28.23
2018-12-30T02:14:52.886Z,25.53
2018-12-30T02:18:15.399Z,28.53
2018-12-30T02:21:41.256Z,24.60
2018-12-30T02:25:01.652Z,27.37
2018-12-30T02:28:23.809Z,24.60
2018-12-30T02:31:46.018Z,22.43
2018-12-30T02:35:08.200Z,25.57
2018-12-30T02:38:30.098Z,21.93
2018-12-30T02:41:51.974Z,22.70
2018-12-30T02:45:14.492Z,24.07
2018-12-30T02:48:36.692Z,23.53
2018-12-30T02:51:59.162Z,17.80
2018-12-30T02:55:21.608Z,28.33
2018-12-30T02:58:43.816Z,19.83
2018-12-30T03:02:05.971Z,16.27
2018-12-30T03:05:27.980Z,14.00
2018-12-30T03:08:50.046Z,13.37
2018-12-30T03:12:12.251Z,12.70
2018-12-30T03:15:34.761Z,10.57
2018-12-30T03:18:56.893Z,9.10
2018-12-30T03:22:19.051Z,8.40
2018-12-30T03:25:41.196Z,8.67
2018-12-30T03:29:03.115Z,10.70
2018-12-30T03:32:25.539Z,11.60
2018-12-30T03:35:48.031Z,7.73
2018-12-30T03:39:10.461Z,7.57
2018-12-30T03:42:32.865Z,7.20
2018-12-30T03:45:55.010Z,5.77
2018-12-30T03:49:17.251Z,8.03
2018-12-30T03:52:39.616Z,6.50
2018-12-30T03:56:01.543Z,6.40
2018-12-30T03:59:23.797Z,5.83
2018-12-30T04:02:46.259Z,8.00
2018-12-30T04:06:08.596Z,7.63
2018-12-30T04:09:30.994Z,8.33
2018-12-30T04:12:52.893Z,7.20
2018-12-30T04:16:15.319Z,7.87
2018-12-30T04:19:37.415Z,7.93
2018-12-30T04:22:59.773Z,10.40
2018-12-30T04:26:22.290Z,9.33
2018-12-30T04:29:44.543Z,7.63
2018-12-30T04:33:06.794Z,9.90
2018-12-30T04:36:29.002Z,9.17
2018-12-30T04:39:51.247Z,8.67
2018-12-30T04:43:13.198Z,10.37
2018-12-30T04:46:35.526Z,8.83
2018-12-30T04:49:57.913Z,7.60
2018-12-30T04:53:20.025Z,6.97
2018-12-30T04:56:41.954Z,8.93
2018-12-30T05:00:04.477Z,6.40
2018-12-30T05:03:26.861Z,5.13
2018-12-30T05:06:49.517Z,5.20
2018-12-30T05:10:11.860Z,5.17
2018-12-30T05:13:33.937Z,4.57
2018-12-30T05:16:56.158Z,3.83
2018-12-30T05:20:18.030Z,3.33
2018-12-30T05:23:40.456Z,4.60
2018-12-30T05:27:02.578Z,3.70
2018-12-30T05:30:24.773Z,3.10
2018-12-30T05:33:46.712Z,2.37
2018-12-30T05:37:08.916Z,1.40
2018-12-30T05:40:31.021Z,3.73
2018-12-30T05:43:53.271Z,2.33
2018-12-30T05:47:15.735Z,2.63
2018-12-30T05:50:37.906Z,2.27
2018-12-30T05:54:00.211Z,2.20
2018-12-30T05:57:22.370Z,1.37
2018-12-30T06:00:44.728Z,1.20
2018-12-30T06:04:07.278Z,2.40
2018-12-30T06:07:29.816Z,2.73
2018-12-30T06:10:52.159Z,3.27
2018-12-30T06:14:14.550Z,2.27
2018-12-30T06:17:36.862Z,0.97
2018-12-30T06:20:59.054Z,3.03
2018-12-30T06:24:21.244Z,2.77
2018-12-30T06:27:43.687Z,2.43
2018-12-30T06:31:06.134Z,2.33
2018-12-30T06:34:28.259Z,2.90
2018-12-30T06:37:50.421Z,4.63
2018-12-30T06:41:12.763Z,3.17
2018-12-30T06:44:34.928Z,3.87
2018-12-30T06:47:57.288Z,2.30
2018-12-30T06:51:19.509Z,2.17
2018-12-30T06:54:41.667Z,5.90
2018-12-30T06:58:03.884Z,4.57
2018-12-30T07:01:26.327Z,4.03
2018-12-30T07:04:48.341Z,4.43
2018-12-30T07:08:10.887Z,4.17
2018-12-30T07:11:32.912Z,6.13
2018-12-30T07:14:55.417Z,6.23
2018-12-30T07:18:17.979Z,5.47
2018-12-30T07:21:40.264Z,3.97
2018-12-30T07:25:02.548Z,5.03
2018-12-30T07:28:24.713Z,4.70
2018-12-30T07:31:46.860Z,4.00
2018-12-30T07:35:09.297Z,4.83
2018-12-30T07:38:31.467Z,7.17
2018-12-30T07:41:53.871Z,4.60
2018-12-30T07:45:15.744Z,4.50
2018-12-30T07:48:37.849Z,4.90
2018-12-30T07:52:00.278Z,5.07
2018-12-30T07:55:22.547Z,4.73
2018-12-30T07:58:44.732Z,4.80
2018-12-30T08:02:07.162Z,5.67
2018-12-30T08:05:29.708Z,5.23
2018-12-30T08:08:51.954Z,6.97
2018-12-30T08:12:14.254Z,8.00
2018-12-30T08:15:36.819Z,5.57
2018-12-30T08:18:59.197Z,7.90
2018-12-30T08:22:21.427Z,4.47
2018-12-30T08:25:43.977Z,5.50
2018-12-30T08:29:06.470Z,6.33
2018-12-30T08:32:28.511Z,6.37
2018-12-30T08:35:50.659Z,4.37
2018-12-30T08:39:13.154Z,6.83
2018-12-30T08:42:35.609Z,7.63
2018-12-30T08:45:57.846Z,5.23
2018-12-30T08:49:20.279Z,5.00
2018-12-30T08:52:42.467Z,5.80
2018-12-30T08:56:04.830Z,6.60
2018-12-30T08:59:27.292Z,7.27
2018-12-30T09:02:49.406Z,7.50
2018-12-30T09:06:11.573Z,6.20
2018-12-30T09:09:33.802Z,5.70
2018-12-30T09:12:57.599Z,3.20
2018-12-30T09:16:20.088Z,4.40
2018-12-30T09:19:41.953Z,7.13
2018-12-30T09:23:03.947Z,5.17
2018-12-30T09:26:26.253Z,5.40
2018-12-30T09:29:48.654Z,3.93
2018-12-30T09:33:10.918Z,4.00
2018-12-30T09:36:33.451Z,5.90
2018-12-30T09:39:55.794Z,5.60
2018-12-30T09:43:18.209Z,5.77
2018-12-30T09:46:40.353Z,6.27
2018-12-30T09:50:02.581Z,8.97
2018-12-30T09:53:24.467Z,5.27
2018-12-30T09:56:46.904Z,5.90
2018-12-30T10:00:09.655Z,8.27
2018-12-30T10:03:31.765Z,7.60
2018-12-30T10:06:53.913Z,8.20
2018-12-30T10:10:16.131Z,7.73
2018-12-30T10:13:38.320Z,9.07
2018-12-30T10:17:00.580Z,8.37
2018-12-30T10:20:22.470Z,8.33
2018-12-30T10:23:52.776Z,13.53
2018-12-30T10:27:08.822Z,10.20
2018-12-30T10:30:31.142Z,8.77
2018-12-30T10:33:53.511Z,7.53
2018-12-30T10:37:16.106Z,8.27
2018-12-30T10:40:38.592Z,10.50
2018-12-30T10:44:00.936Z,9.90
2018-12-30T10:47:23.198Z,7.80
2018-12-30T10:50:45.288Z,9.83
2018-12-30T10:54:07.432Z,9.03
2018-12-30T10:57:29.617Z,8.10
2018-12-30T11:00:51.542Z,15.17
2018-12-30T11:04:13.920Z,9.23
2018-12-30T11:07:36.108Z,11.30
2018-12-30T11:10:58.269Z,8.83
2018-12-30T11:14:20.369Z,10.90
2018-12-30T11:17:42.620Z,8.40
2018-12-30T11:21:04.724Z,12.97
2018-12-30T11:24:28.037Z,9.80
2018-12-30T11:27:50.576Z,9.47
2018-12-30T11:31:13.865Z,6.77
2018-12-30T11:34:36.153Z,8.50
2018-12-30T11:37:58.043Z,9.77
2018-12-30T11:41:20.474Z,5.20
2018-12-30T11:44:43.034Z,7.73
2018-12-30T11:48:05.656Z,9.13
2018-12-30T11:51:27.900Z,13.40
2018-12-30T11:54:50.451Z,7.67
2018-12-30T11:58:12.629Z,9.53
2018-12-30T12:01:34.719Z,10.20
2018-12-30T12:04:56.834Z,7.87
2018-12-30T12:08:18.996Z,9.90
2018-12-30T12:11:41.236Z,9.17
2018-12-30T12:15:03.928Z,10.27
2018-12-30T12:18:26.055Z,12.60
2018-12-30T12:21:48.550Z,8.73
2018-12-30T12:25:10.672Z,6.40
2018-12-30T12:28:32.843Z,6.83
2018-12-30T12:31:55.080Z,9.30
2018-12-30T12:35:17.057Z,9.27
2018-12-30T12:38:38.955Z,9.90
2018-12-30T12:42:01.575Z,11.13
2018-12-30T12:45:23.878Z,7.67
2018-12-30T12:48:46.141Z,8.77
2018-12-30T12:52:08.800Z,9.60
2018-12-30T12:55:31.123Z,7.53
2018-12-30T12:58:53.235Z,8.43
2018-12-30T13:02:15.389Z,9.90
2018-12-30T13:05:37.478Z,6.57
2018-12-30T13:08:59.706Z,11.10
2018-12-30T13:12:21.856Z,6.33
2018-12-30T13:15:43.959Z,8.10
2018-12-30T13:19:06.144Z,10.03
2018-12-30T13:22:28.264Z,8.90
2018-12-30T13:25:50.215Z,7.77
2018-12-30T13:29:12.471Z,4.97
2018-12-30T13:32:34.948Z,10.30
2018-12-30T13:35:57.441Z,9.10
2018-12-30T13:39:19.693Z,9.80
2018-12-30T13:42:42.133Z,7.47
2018-12-30T13:46:04.444Z,10.30
2018-12-30T13:49:26.716Z,13.60
2018-12-30T13:52:49.031Z,14.20
2018-12-30T13:56:11.380Z,10.27
2018-12-30T13:59:33.887Z,10.20
2018-12-30T14:02:56.340Z,8.47
2018-12-30T14:06:18.457Z,7.93
2018-12-30T14:09:40.584Z,7.73
2018-12-30T14:13:02.761Z,10.87
2018-12-30T14:16:24.678Z,8.70
2018-12-30T14:19:47.133Z,12.07
2018-12-30T14:23:09.261Z,9.90
2018-12-30T14:26:31.479Z,7.60
2018-12-30T14:29:53.983Z,8.17
2018-12-30T14:33:16.210Z,10.90
2018-12-30T14:36:38.783Z,13.63
2018-12-30T14:40:01.039Z,13.53
2018-12-30T14:43:23.274Z,8.97
2018-12-30T14:46:45.153Z,12.37
2018-12-30T14:50:09.821Z,10.60
2018-12-30T14:53:31.798Z,9.90
2018-12-30T14:56:54.025Z,10.63
2018-12-30T15:00:17.678Z,11.10
2018-12-30T15:03:39.928Z,10.50
2018-12-30T15:07:01.980Z,9.63
2018-12-30T15:10:24.331Z,7.33
2018-12-30T15:13:46.738Z,10.87
2018-12-30T15:17:08.657Z,9.77
2018-12-30T15:20:30.856Z,10.70
2018-12-30T15:23:53.087Z,9.17
2018-12-30T15:27:15.030Z,12.43
2018-12-30T15:30:37.482Z,13.67
2018-12-30T15:33:59.687Z,13.07
2018-12-30T15:37:21.866Z,11.40
2018-12-30T15:40:43.806Z,10.20
2018-12-30T15:44:06.041Z,11.80
2018-12-30T15:47:28.166Z,12.40
2018-12-30T15:50:50.529Z,10.67
2018-12-30T15:54:12.742Z,13.67
2018-12-30T15:57:34.691Z,13.73
2018-12-30T16:00:57.055Z,11.87
2018-12-30T16:04:19.420Z,17.77
2018-12-30T16:07:41.722Z,13.27
2018-12-30T16:11:04.272Z,17.60
2018-12-30T16:14:26.411Z,11.47
2018-12-30T16:17:48.531Z,12.40
2018-12-30T16:21:10.917Z,15.53
2018-12-30T16:24:33.438Z,16.53
2018-12-30T16:27:55.390Z,13.30
2018-12-30T16:31:17.585Z,15.33
2018-12-30T16:34:39.995Z,13.13
2018-12-30T16:38:02.205Z,12.37
2018-12-30T16:41:24.619Z,12.07
2018-12-30T16:44:46.734Z,23.97
2018-12-30T16:48:08.930Z,137.27
2018-12-30T16:51:31.400Z,35.27
2018-12-30T16:54:53.586Z,29.87
2018-12-30T16:58:16.051Z,20.67
2018-12-30T17:01:38.241Z,12.77
2018-12-30T17:05:00.641Z,11.37
2018-12-30T17:08:23.048Z,11.73
2018-12-30T17:11:45.421Z,14.00
2018-12-30T17:15:08.165Z,15.00
2018-12-30T17:18:30.080Z,14.30
2018-12-30T17:21:52.319Z,12.80
2018-12-30T17:25:14.474Z,14.47
2018-12-30T17:28:36.620Z,10.23
2018-12-30T17:31:59.079Z,12.00
2018-12-30T17:35:21.256Z,12.17
2018-12-30T17:38:43.411Z,16.33
2018-12-30T17:42:05.590Z,13.87
2018-12-30T17:45:28.101Z,9.87
2018-12-30T17:48:50.324Z,9.17
2018-12-30T17:52:12.437Z,12.13
2018-12-30T17:55:34.723Z,9.10
2018-12-30T17:58:56.890Z,9.70
2018-12-30T18:02:19.239Z,7.23
2018-12-30T18:05:41.545Z,11.30
2018-12-30T18:09:05.091Z,10.60
2018-12-30T18:12:27.611Z,13.13
2018-12-30T18:15:49.959Z,11.23
2018-12-30T18:19:12.254Z,26.73
2018-12-30T18:22:34.453Z,7.13
2018-12-30T18:25:58.716Z,11.50
2018-12-30T18:29:21.217Z,15.00
2018-12-30T18:32:43.671Z,9.10
2018-12-30T18:36:06.017Z,15.17
2018-12-30T18:39:28.217Z,12.47
2018-12-30T18:42:50.423Z,13.77
2018-12-30T18:46:12.604Z,14.77
2018-12-30T18:49:35.051Z,13.00
2018-12-30T18:52:57.486Z,11.83
2018-12-30T18:56:19.898Z,12.60
2018-12-30T18:59:42.049Z,19.03
2018-12-30T19:03:04.463Z,8.80
2018-12-30T19:06:26.646Z,12.10
2018-12-30T19:09:49.090Z,14.53
2018-12-30T19:13:11.353Z,14.37
2018-12-30T19:16:33.510Z,12.30
2018-12-30T19:19:55.962Z,15.27
2018-12-30T19:23:18.180Z,10.60
2018-12-30T19:26:40.447Z,16.70
2018-12-30T19:30:02.456Z,12.97
2018-12-30T19:33:25.064Z,11.50
2018-12-30T19:36:47.613Z,13.10
2018-12-30T19:40:10.873Z,13.27
2018-12-30T19:43:33.077Z,14.77
2018-12-30T19:46:55.210Z,13.47
2018-12-30T19:50:17.661Z,18.13
2018-12-30T19:53:39.601Z,17.73
2018-12-30T19:57:01.809Z,15.13
2018-12-30T20:00:24.151Z,16.37
2018-12-30T20:03:46.553Z,17.83
2018-12-30T20:07:08.714Z,17.47
2018-12-30T20:10:30.668Z,13.40
2018-12-30T20:13:52.831Z,18.40
2018-12-30T20:17:15.478Z,12.23
2018-12-30T20:20:37.958Z,18.07
2018-12-30T20:24:00.115Z,16.03
2018-12-30T20:27:22.350Z,14.67
2018-12-30T20:30:44.666Z,15.63
2018-12-30T20:34:06.708Z,17.13
2018-12-30T20:37:29.104Z,18.10
2018-12-30T20:40:51.318Z,13.03
2018-12-30T20:44:13.381Z,9.63
2018-12-30T20:47:35.508Z,15.10
2018-12-30T20:50:57.728Z,15.23
2018-12-30T20:54:19.923Z,22.90
2018-12-30T20:57:42.042Z,16.33
2018-12-30T21:01:04.023Z,15.97
2018-12-30T21:04:26.160Z,19.23
2018-12-30T21:07:48.394Z,15.00
2018-12-30T21:11:10.789Z,12.60
2018-12-30T21:14:32.943Z,17.80
2018-12-30T21:17:56.945Z,14.27
2018-12-30T21:21:19.268Z,15.93
2018-12-30T21:24:41.515Z,17.23
2018-12-30T21:28:03.667Z,18.77
2018-12-30T21:31:25.612Z,22.43
2018-12-30T21:34:47.721Z,18.50
2018-12-30T21:38:09.978Z,16.50
2018-12-30T21:41:31.999Z,12.93
2018-12-30T21:44:54.114Z,21.67
2018-12-30T21:48:16.266Z,15.90
2018-12-30T21:51:38.685Z,16.23
2018-12-30T21:55:00.872Z,14.23
2018-12-30T21:58:23.108Z,17.17
2018-12-30T22:01:45.519Z,19.57
2018-12-30T22:05:07.635Z,22.50
2018-12-30T22:08:29.829Z,17.17
2018-12-30T22:11:52.206Z,14.17
2018-12-30T22:15:14.571Z,15.53
2018-12-30T22:18:36.848Z,21.33
2018-12-30T22:21:59.038Z,17.93
2018-12-30T22:25:21.222Z,19.53
2018-12-30T22:28:43.188Z,21.63
2018-12-30T22:32:05.479Z,21.47
2018-12-30T22:35:27.710Z,17.90
2018-12-30T22:38:52.784Z,24.07
2018-12-30T22:42:14.063Z,19.43
2018-12-30T22:45:36.494Z,24.13
2018-12-30T22:48:58.527Z,18.43
2018-12-30T22:52:20.631Z,22.47
2018-12-30T22:55:42.975Z,22.97
2018-12-30T22:59:05.209Z,23.10
2018-12-30T23:02:27.520Z,18.60
2018-12-30T23:05:49.910Z,20.60
2018-12-30T23:09:12.332Z,19.87
2018-12-30T23:12:34.537Z,19.10
2018-12-30T23:15:56.662Z,17.60
2018-12-30T23:19:18.891Z,23.63
2018-12-30T23:22:41.037Z,20.80
2018-12-30T23:26:03.344Z,26.27
2018-12-30T23:29:25.808Z,23.80
2018-12-30T23:32:48.103Z,17.57
2018-12-30T23:36:10.073Z,21.77
2018-12-30T23:39:32.301Z,28.23
2018-12-30T23:42:54.822Z,21.40
2018-12-30T23:46:17.222Z,28.67
2018-12-30T23:49:39.282Z,21.43
2018-12-30T23:53:01.598Z,27.63
2018-12-30T23:56:23.813Z,21.13
2018-12-30T23:59:46.192Z,18.93
